Time;durP1;ratioP1;P1;durP2;ratioP2;P2;SDS_P1;SDS_P2;PMS_P1;PMS_P2;Temp;Humidity;BMP_temperature;BMP_pressure;BME280_temperature;BME280_humidity;BME280_pressure;Samples;Min_cycle;Max_cycle;Signal;HPM_P1;HPM_P2
2023/12/09 00:01:47;;;;;;;43.60;17.77;;;7.20;99.90;;;;;;5047205;28;20024;-80
2023/12/09 00:04:13;;;;;;;39.45;18.48;;;7.20;99.90;;;;;;5046753;28;20028;-80
2023/12/09 00:06:48;;;;;;;45.90;18.10;;;7.30;99.90;;;;;;5065040;28;20093;-81
2023/12/09 00:09:18;;;;;;;42.80;17.65;;;7.30;99.90;;;;;;5080412;28;20082;-81
2023/12/09 00:11:44;;;;;;;44.42;16.83;;;7.20;99.90;;;;;;5079864;28;20043;-81
2023/12/09 00:14:10;;;;;;;44.13;17.65;;;7.30;99.90;;;;;;5064144;28;20044;-80
2023/12/09 00:16:36;;;;;;;45.97;18.05;;;7.30;99.90;;;;;;5045905;28;20016;-80
2023/12/09 00:19:02;;;;;;;42.45;17.60;;;7.30;99.90;;;;;;5079754;28;20036;-81
2023/12/09 00:21:28;;;;;;;45.03;17.65;;;7.40;99.90;;;;;;5063058;28;20229;-80
2023/12/09 00:23:54;;;;;;;51.38;17.80;;;7.40;99.90;;;;;;5080215;28;20070;-81
2023/12/09 00:26:21;;;;;;;38.03;16.27;;;7.30;99.90;;;;;;5063796;28;20082;-81
2023/12/09 00:28:46;;;;;;;49.67;17.45;;;7.40;99.90;;;;;;5063367;28;20048;-81
2023/12/09 00:31:13;;;;;;;45.05;17.60;;;7.40;99.90;;;;;;5033812;28;20045;-80
2023/12/09 00:33:40;;;;;;;43.47;17.13;;;7.30;99.90;;;;;;5052170;28;20115;-80
2023/12/09 00:36:06;;;;;;;47.20;16.73;;;7.40;99.90;;;;;;5032429;28;20051;-80
2023/12/09 00:38:31;;;;;;;49.38;19.02;;;7.40;99.90;;;;;;5049553;28;20376;-81
2023/12/09 00:40:57;;;;;;;35.95;16.50;;;8.00;99.90;;;;;;5049739;28;20131;-80
2023/12/09 00:43:23;;;;;;;42.15;16.48;;;7.40;99.90;;;;;;5048724;28;20410;-80
2023/12/09 00:45:48;;;;;;;45.35;16.75;;;7.40;99.90;;;;;;5047866;28;20037;-80
2023/12/09 00:48:14;;;;;;;46.83;17.40;;;7.40;99.90;;;;;;5031850;28;20119;-81
2023/12/09 00:50:40;;;;;;;41.38;16.00;;;7.40;99.90;;;;;;5051893;28;20040;-80
2023/12/09 00:53:05;;;;;;;45.08;16.70;;;7.40;99.90;;;;;;5033021;28;20028;-81
2023/12/09 00:55:31;;;;;;;43.08;16.15;;;7.40;99.90;;;;;;5049329;28;20505;-80
2023/12/09 00:57:57;;;;;;;41.40;17.05;;;7.40;99.90;;;;;;5027804;28;20095;-80
2023/12/09 01:00:25;;;;;;;39.53;15.98;;;7.50;99.90;;;;;;5049994;28;20033;-80
2023/12/09 01:02:51;;;;;;;38.47;16.00;;;7.40;99.90;;;;;;5034879;28;20032;-81
2023/12/09 01:05:17;;;;;;;43.90;16.65;;;7.40;99.90;;;;;;5034414;28;20060;-81
2023/12/09 01:07:43;;;;;;;41.38;16.33;;;7.40;99.90;;;;;;5048862;28;20536;-81
2023/12/09 01:10:09;;;;;;;40.35;16.15;;;7.40;99.90;;;;;;5049560;28;21824;-81
2023/12/09 01:12:35;;;;;;;40.13;16.60;;;7.40;99.90;;;;;;5034783;28;20108;-81
2023/12/09 01:15:01;;;;;;;39.78;15.98;;;7.50;99.90;;;;;;5032806;28;20610;-81
2023/12/09 01:17:26;;;;;;;46.33;16.80;;;7.50;99.90;;;;;;5050656;28;20082;-80
2023/12/09 01:19:52;;;;;;;39.45;14.95;;;7.50;99.90;;;;;;5048260;28;20063;-81
2023/12/09 01:22:18;;;;;;;42.30;16.35;;;7.50;99.90;;;;;;5036444;28;20123;-81
2023/12/09 01:24:44;;;;;;;45.17;16.15;;;7.50;99.90;;;;;;5055544;28;20104;-81
2023/12/09 01:27:09;;;;;;;38.88;15.90;;;7.40;99.90;;;;;;5031333;28;20122;-81
2023/12/09 01:29:39;;;;;;;45.40;16.60;;;7.50;99.90;;;;;;5034633;28;20047;-80
2023/12/09 01:32:05;;;;;;;38.17;14.90;;;7.50;99.90;;;;;;5052060;28;20039;-81
2023/12/09 01:34:30;;;;;;;41.55;14.85;;;7.50;99.90;;;;;;5036862;28;20101;-80
2023/12/09 01:36:56;;;;;;;35.20;15.10;;;7.50;99.90;;;;;;5052515;28;20036;-81
2023/12/09 01:39:22;;;;;;;39.33;15.82;;;7.50;99.90;;;;;;5033777;28;20044;-81
2023/12/09 01:41:47;;;;;;;43.15;17.17;;;7.50;99.90;;;;;;5035948;28;20059;-80
2023/12/09 01:44:13;;;;;;;36.55;14.60;;;7.50;99.90;;;;;;5034511;28;20044;-81
2023/12/09 01:46:40;;;;;;;38.30;15.30;;;7.50;99.90;;;;;;5052092;28;20043;-81
2023/12/09 01:49:06;;;;;;;38.42;16.00;;;7.50;99.90;;;;;;5051819;28;20055;-81
2023/12/09 01:51:34;;;;;;;39.72;15.65;;;7.50;99.90;;;;;;5051363;28;20044;-81
2023/12/09 01:54:00;;;;;;;34.85;14.98;;;7.50;99.90;;;;;;5066327;28;20453;-81
2023/12/09 01:56:26;;;;;;;41.88;14.63;;;7.60;99.90;;;;;;5047789;28;20438;-81
2023/12/09 01:58:52;;;;;;;36.90;14.95;;;7.60;99.90;;;;;;5032888;28;20146;-80
2023/12/09 02:01:17;;;;;;;37.00;15.00;;;7.50;99.90;;;;;;5050387;28;20689;-80
2023/12/09 02:03:43;;;;;;;40.67;16.35;;;7.60;99.90;;;;;;5052073;28;20032;-80
2023/12/09 02:06:09;;;;;;;40.03;14.80;;;7.50;99.90;;;;;;5050684;28;21830;-81
2023/12/09 02:08:35;;;;;;;43.25;15.07;;;7.50;99.90;;;;;;5013190;28;20040;-80
2023/12/09 02:11:22;;;;;;;35.25;14.50;;;7.50;99.90;;;;;;5055387;28;20051;-81
2023/12/09 02:14:07;;;;;;;32.65;14.35;;;7.50;99.90;;;;;;5051628;28;20043;-81
2023/12/09 02:16:52;;;;;;;36.42;14.27;;;7.60;99.90;;;;;;5054098;28;20036;-81
2023/12/09 02:19:18;;;;;;;32.80;14.18;;;7.50;99.90;;;;;;5066172;28;20032;-80
2023/12/09 02:21:58;;;;;;;37.92;14.75;;;7.60;99.90;;;;;;5051944;28;20063;-81
2023/12/09 02:24:25;;;;;;;30.75;13.57;;;7.60;99.90;;;;;;5055821;28;20676;-81
2023/12/09 02:26:51;;;;;;;31.77;13.52;;;7.50;99.90;;;;;;5056635;28;20044;-81
2023/12/09 02:29:19;;;;;;;34.70;13.73;;;7.50;99.90;;;;;;5036201;28;20040;-80
2023/12/09 02:31:46;;;;;;;38.50;14.48;;;7.50;99.90;;;;;;5054249;28;20086;-81
2023/12/09 02:34:14;;;;;;;35.40;13.55;;;7.50;99.90;;;;;;5038528;28;20075;-81
2023/12/09 02:36:43;;;;;;;35.47;14.07;;;7.60;99.90;;;;;;5038807;28;20104;-81
2023/12/09 02:39:12;;;;;;;39.35;14.48;;;7.50;99.90;;;;;;5054694;28;20040;-81
2023/12/09 02:41:40;;;;;;;30.65;13.07;;;7.60;99.90;;;;;;5053737;28;20090;-81
2023/12/09 02:44:06;;;;;;;34.13;13.10;;;7.60;99.90;;;;;;5071891;28;20036;-80
2023/12/09 02:46:32;;;;;;;35.92;13.35;;;7.60;99.90;;;;;;5039406;28;20401;-80
2023/12/09 02:49:01;;;;;;;37.67;14.20;;;7.50;99.90;;;;;;5055976;28;20050;-80
2023/12/09 02:51:26;;;;;;;31.63;13.38;;;7.60;99.90;;;;;;5019440;28;20036;-80
2023/12/09 02:53:54;;;;;;;32.85;13.77;;;7.60;99.90;;;;;;5039047;28;20221;-81
2023/12/09 02:56:20;;;;;;;35.22;14.38;;;7.60;99.90;;;;;;5039429;28;20036;-80
2023/12/09 02:58:46;;;;;;;34.85;14.25;;;7.60;99.90;;;;;;5055047;28;20572;-81
2023/12/09 03:01:12;;;;;;;37.40;14.48;;;7.60;99.90;;;;;;5021821;28;20115;-81
2023/12/09 03:03:37;;;;;;;36.28;13.65;;;7.60;99.90;;;;;;5015937;28;20113;-81
2023/12/09 03:06:04;;;;;;;34.38;13.73;;;7.60;99.90;;;;;;5055838;28;20555;-80
2023/12/09 03:08:29;;;;;;;35.15;13.68;;;7.60;99.90;;;;;;5069594;28;20036;-80
2023/12/09 03:10:55;;;;;;;31.00;13.07;;;7.60;99.90;;;;;;5016633;28;20183;-80
2023/12/09 03:13:21;;;;;;;27.52;12.85;;;7.60;99.90;;;;;;5023128;28;20508;-80
2023/12/09 03:15:46;;;;;;;33.88;12.95;;;7.60;99.90;;;;;;5035602;28;20049;-81
2023/12/09 03:18:12;;;;;;;30.35;14.20;;;7.60;99.90;;;;;;5055246;28;20047;-80
2023/12/09 03:20:38;;;;;;;31.23;11.80;;;7.60;99.90;;;;;;5033701;28;20059;-80
2023/12/09 03:23:04;;;;;;;31.05;11.73;;;7.70;99.90;;;;;;5054506;28;20040;-80
2023/12/09 03:25:29;;;;;;;29.08;13.77;;;7.70;99.90;;;;;;5052287;28;20104;-81
2023/12/09 03:27:55;;;;;;;34.17;12.95;;;7.60;99.90;;;;;;5034976;28;20046;-80
2023/12/09 03:30:21;;;;;;;31.95;11.93;;;7.60;99.90;;;;;;5034818;28;20159;-80
2023/12/09 03:32:46;;;;;;;29.13;11.93;;;7.60;99.90;;;;;;5035049;28;20052;-80
2023/12/09 03:35:12;;;;;;;32.53;12.43;;;7.60;99.90;;;;;;5035058;28;20465;-81
2023/12/09 03:37:38;;;;;;;36.40;12.80;;;7.60;99.90;;;;;;5051962;28;20043;-80
2023/12/09 03:40:05;;;;;;;35.58;13.05;;;7.60;99.90;;;;;;5052848;28;20072;-81
2023/12/09 03:42:31;;;;;;;29.75;12.50;;;7.60;99.90;;;;;;5050807;28;20102;-80
2023/12/09 03:44:56;;;;;;;30.20;11.95;;;7.60;99.90;;;;;;5068906;28;20044;-81
2023/12/09 03:47:22;;;;;;;33.25;12.07;;;7.60;99.90;;;;;;5051576;28;20048;-80
2023/12/09 03:49:48;;;;;;;30.52;11.65;;;7.60;99.90;;;;;;5068535;28;20040;-81
2023/12/09 03:52:13;;;;;;;32.05;12.70;;;7.60;99.90;;;;;;5034645;28;20094;-80
2023/12/09 03:54:39;;;;;;;25.13;11.65;;;7.60;99.90;;;;;;5025964;28;20528;-81
2023/12/09 03:57:05;;;;;;;31.30;12.38;;;7.60;99.90;;;;;;5009880;28;20148;-80
2023/12/09 03:59:31;;;;;;;30.10;12.15;;;7.60;99.90;;;;;;5038833;28;20051;-81
2023/12/09 04:01:56;;;;;;;27.02;11.23;;;7.60;99.90;;;;;;5034937;28;20045;-81
2023/12/09 04:04:22;;;;;;;29.30;12.02;;;7.50;99.90;;;;;;5014076;28;20872;-81
2023/12/09 04:06:49;;;;;;;19.58;10.75;;;7.60;99.90;;;;;;5026736;28;20504;-80
2023/12/09 04:09:16;;;;;;;26.00;11.20;;;7.60;99.90;;;;;;5050599;28;20035;-81
2023/12/09 04:11:43;;;;;;;31.13;11.77;;;7.50;99.90;;;;;;5050852;28;20040;-80
2023/12/09 04:14:09;;;;;;;23.85;11.10;;;7.50;99.90;;;;;;5065572;28;20085;-80
2023/12/09 04:16:37;;;;;;;28.98;10.18;;;7.50;99.90;;;;;;5009012;28;20119;-80
2023/12/09 04:19:03;;;;;;;27.60;9.93;;;7.60;99.90;;;;;;5051423;28;20064;-81
2023/12/09 04:21:28;;;;;;;26.70;10.45;;;7.60;99.90;;;;;;5032098;28;20145;-81
2023/12/09 04:23:54;;;;;;;25.52;11.38;;;7.50;99.90;;;;;;5008951;28;20112;-80
2023/12/09 04:26:20;;;;;;;23.33;10.32;;;7.60;99.90;;;;;;5030565;28;20631;-80
2023/12/09 04:28:46;;;;;;;29.08;10.45;;;7.50;99.90;;;;;;5034515;28;20041;-81
2023/12/09 04:31:12;;;;;;;23.75;10.77;;;7.50;99.90;;;;;;5031338;28;20045;-81
2023/12/09 04:33:38;;;;;;;23.30;10.90;;;7.50;99.90;;;;;;5065827;28;20162;-81
2023/12/09 04:36:04;;;;;;;24.13;10.45;;;7.60;99.90;;;;;;5031935;28;20045;-80
2023/12/09 04:38:30;;;;;;;23.25;10.25;;;7.60;99.90;;;;;;5034612;28;20040;-80
2023/12/09 04:40:55;;;;;;;23.42;9.43;;;7.50;99.90;;;;;;5051059;28;20039;-80
2023/12/09 04:43:21;;;;;;;30.15;10.43;;;7.60;99.90;;;;;;5033354;28;20033;-80
2023/12/09 04:45:47;;;;;;;25.02;10.27;;;7.50;99.90;;;;;;5049066;28;20105;-80
2023/12/09 04:48:12;;;;;;;24.88;10.50;;;7.50;99.90;;;;;;5040772;28;20072;-80
2023/12/09 04:50:38;;;;;;;27.20;10.20;;;7.60;99.90;;;;;;5032884;28;20043;-80
2023/12/09 04:53:04;;;;;;;22.73;9.65;;;7.50;99.90;;;;;;5040090;28;20468;-80
2023/12/09 04:55:30;;;;;;;26.38;10.75;;;7.60;99.90;;;;;;5049653;28;20068;-80
2023/12/09 04:57:56;;;;;;;25.95;10.32;;;8.30;99.90;;;;;;5063233;28;20040;-80
2023/12/09 05:00:21;;;;;;;27.10;10.80;;;7.50;99.90;;;;;;5033918;28;20064;-81
2023/12/09 05:02:47;;;;;;;23.73;10.48;;;7.50;99.90;;;;;;5033052;28;20434;-80
2023/12/09 05:05:14;;;;;;;26.88;10.15;;;7.80;99.90;;;;;;5049507;28;20040;-80
2023/12/09 05:07:40;;;;;;;23.80;9.77;;;7.60;99.90;;;;;;5050681;28;20075;-80
2023/12/09 05:10:06;;;;;;;26.70;9.15;;;7.50;99.90;;;;;;5048121;28;20041;-81
2023/12/09 05:12:31;;;;;;;20.08;8.80;;;7.50;99.90;;;;;;5016863;28;20028;-80
2023/12/09 05:14:57;;;;;;;26.73;10.00;;;7.60;99.90;;;;;;5065979;28;20438;-81
2023/12/09 05:17:23;;;;;;;25.75;9.15;;;7.50;99.90;;;;;;5069694;28;20032;-81
2023/12/09 05:19:48;;;;;;;25.55;9.13;;;7.50;99.90;;;;;;5030954;28;20041;-80
2023/12/09 05:22:14;;;;;;;23.55;8.98;;;7.50;99.90;;;;;;4996680;28;20167;-80
2023/12/09 05:24:40;;;;;;;22.65;8.75;;;7.50;99.90;;;;;;5029895;28;20033;-80
2023/12/09 05:27:06;;;;;;;23.05;9.20;;;7.50;99.90;;;;;;5030118;28;20377;-81
2023/12/09 05:29:32;;;;;;;23.13;8.90;;;7.50;99.90;;;;;;5012258;28;20040;-80
2023/12/09 05:31:59;;;;;;;20.80;8.43;;;7.50;99.90;;;;;;5030471;28;20040;-81
2023/12/09 05:34:24;;;;;;;21.45;8.50;;;7.50;99.90;;;;;;5025725;28;20045;-80
2023/12/09 05:36:50;;;;;;;23.25;8.13;;;7.50;99.90;;;;;;5014773;28;20059;-80
2023/12/09 05:39:16;;;;;;;20.00;8.15;;;7.40;99.90;;;;;;5021728;28;20127;-80
2023/12/09 05:41:42;;;;;;;24.30;8.32;;;7.50;99.90;;;;;;5012749;28;20124;-81
2023/12/09 05:44:07;;;;;;;21.92;8.18;;;7.50;99.90;;;;;;5012412;28;20044;-81
2023/12/09 05:46:36;;;;;;;26.92;9.27;;;7.50;99.90;;;;;;5012832;28;20033;-80
2023/12/09 05:49:02;;;;;;;23.92;8.57;;;7.60;99.90;;;;;;4998308;28;20041;-80
2023/12/09 05:51:28;;;;;;;20.73;8.30;;;7.50;99.90;;;;;;5029311;28;20064;-80
2023/12/09 05:53:53;;;;;;;28.27;8.98;;;7.50;99.90;;;;;;5029108;28;20114;-80
2023/12/09 05:56:20;;;;;;;27.02;9.07;;;7.50;99.90;;;;;;5011253;28;20060;-81
2023/12/09 05:58:46;;;;;;;22.58;8.38;;;7.50;99.90;;;;;;5013482;28;20037;-80
2023/12/09 06:01:11;;;;;;;20.73;7.82;;;7.50;99.90;;;;;;5046152;28;20033;-81
2023/12/09 06:03:37;;;;;;;20.02;8.05;;;7.50;99.90;;;;;;5013115;28;20041;-80
2023/12/09 06:06:04;;;;;;;21.98;8.13;;;7.50;99.90;;;;;;5028592;28;20049;-80
2023/12/09 06:08:30;;;;;;;23.92;7.43;;;7.50;99.90;;;;;;5023026;28;20060;-80
2023/12/09 06:10:55;;;;;;;22.65;8.02;;;7.50;99.90;;;;;;5010046;28;20041;-81
2023/12/09 06:13:21;;;;;;;22.73;8.25;;;7.50;99.90;;;;;;5027867;28;20036;-80
2023/12/09 06:15:47;;;;;;;24.50;8.25;;;7.50;99.90;;;;;;5011850;28;20410;-80
2023/12/09 06:18:12;;;;;;;21.40;7.72;;;7.50;99.90;;;;;;5015982;28;20110;-81
2023/12/09 06:20:38;;;;;;;21.02;8.07;;;7.50;99.90;;;;;;5018370;28;20053;-81
2023/12/09 06:23:04;;;;;;;23.50;8.27;;;7.50;99.90;;;;;;5032717;28;20044;-81
2023/12/09 06:25:30;;;;;;;21.75;7.88;;;7.40;99.90;;;;;;5063899;28;20073;-81
2023/12/09 06:27:55;;;;;;;24.85;7.95;;;7.50;99.90;;;;;;5049329;28;20043;-80
2023/12/09 06:30:21;;;;;;;25.30;8.43;;;7.40;99.90;;;;;;5031096;28;20029;-81
2023/12/09 06:32:47;;;;;;;22.80;7.95;;;7.40;99.90;;;;;;5064274;28;20040;-81
2023/12/09 06:35:13;;;;;;;18.85;7.68;;;7.50;99.90;;;;;;5063163;28;20148;-80
2023/12/09 06:37:38;;;;;;;22.92;8.32;;;7.40;99.90;;;;;;5031335;28;20075;-80
2023/12/09 06:40:04;;;;;;;24.50;7.63;;;7.50;99.90;;;;;;5028918;28;20115;-81
2023/12/09 06:42:30;;;;;;;23.38;7.70;;;7.40;99.90;;;;;;5028391;28;20040;-81
2023/12/09 06:44:56;;;;;;;18.75;7.47;;;7.50;99.90;;;;;;5062613;28;20051;-81
2023/12/09 06:47:22;;;;;;;22.95;7.63;;;7.40;99.90;;;;;;5030831;28;20399;-81
2023/12/09 06:49:48;;;;;;;15.85;6.90;;;7.40;99.90;;;;;;5031959;28;20040;-81
2023/12/09 06:52:13;;;;;;;21.27;7.95;;;7.40;99.90;;;;;;5031093;28;20068;-81
2023/12/09 06:54:39;;;;;;;23.40;8.02;;;7.40;99.90;;;;;;5031752;28;20040;-80
2023/12/09 06:57:05;;;;;;;21.42;8.07;;;7.40;99.90;;;;;;5015188;28;20403;-81
2023/12/09 06:59:31;;;;;;;25.98;8.40;;;7.40;99.90;;;;;;5031573;28;20040;-81
2023/12/09 07:01:57;;;;;;;22.20;8.48;;;7.40;99.90;;;;;;5047439;28;20119;-80
2023/12/09 07:04:23;;;;;;;23.80;8.63;;;7.30;99.90;;;;;;5048051;28;20032;-80
2023/12/09 07:06:49;;;;;;;20.58;7.43;;;7.40;99.90;;;;;;5046238;28;20059;-80
2023/12/09 07:09:15;;;;;;;18.15;7.80;;;7.30;99.90;;;;;;5033495;28;20033;-80
2023/12/09 07:11:40;;;;;;;19.40;7.93;;;7.30;99.90;;;;;;5051705;28;20404;-80
2023/12/09 07:14:06;;;;;;;19.65;7.88;;;7.30;99.90;;;;;;5036558;28;20411;-81
2023/12/09 07:16:32;;;;;;;19.80;8.13;;;7.30;99.90;;;;;;5065483;28;20045;-81
2023/12/09 07:19:00;;;;;;;21.08;7.13;;;7.30;99.90;;;;;;5019796;28;20132;-80
2023/12/09 07:21:27;;;;;;;22.48;8.13;;;7.20;99.90;;;;;;5035548;28;20114;-80
2023/12/09 07:23:53;;;;;;;19.08;7.68;;;7.20;99.90;;;;;;5067930;28;20032;-80
2023/12/09 07:26:19;;;;;;;20.67;7.78;;;7.40;99.90;;;;;;5052660;28;20036;-80
2023/12/09 07:28:45;;;;;;;23.00;8.13;;;7.20;99.90;;;;;;5050799;28;20044;-81
2023/12/09 07:31:11;;;;;;;23.65;7.90;;;7.10;99.90;;;;;;5036859;28;20115;-81
2023/12/09 07:33:37;;;;;;;18.75;7.50;;;8.30;99.90;;;;;;5033974;28;20060;-80
2023/12/09 07:36:03;;;;;;;19.90;7.32;;;7.20;99.90;;;;;;5017714;28;20147;-80
2023/12/09 07:38:28;;;;;;;18.75;7.72;;;7.10;99.90;;;;;;5069331;28;20040;-81
2023/12/09 07:40:55;;;;;;;21.33;7.68;;;7.10;99.90;;;;;;5033650;28;20048;-81
2023/12/09 07:43:20;;;;;;;23.33;8.15;;;7.10;99.90;;;;;;5032615;28;20041;-81
2023/12/09 07:45:46;;;;;;;18.70;7.22;;;7.00;99.90;;;;;;5037374;28;20029;-81
2023/12/09 07:48:12;;;;;;;20.45;7.78;;;7.10;99.90;;;;;;5020124;28;20040;-81
2023/12/09 07:50:37;;;;;;;16.52;7.25;;;7.10;99.90;;;;;;5033870;28;20507;-81
2023/12/09 07:53:04;;;;;;;22.88;6.93;;;7.10;99.90;;;;;;5038067;28;20544;-81
2023/12/09 07:55:30;;;;;;;17.00;6.75;;;7.10;99.90;;;;;;5046727;28;20116;-80
2023/12/09 07:57:58;;;;;;;21.95;7.53;;;7.10;99.90;;;;;;5051035;28;20363;-80
2023/12/09 08:00:27;;;;;;;18.38;7.20;;;7.10;99.90;;;;;;5049534;28;20037;-81
2023/12/09 08:02:54;;;;;;;21.65;6.82;;;7.10;99.90;;;;;;5067357;28;20045;-80
2023/12/09 08:05:24;;;;;;;19.48;7.28;;;7.00;99.90;;;;;;5069267;28;20041;-81
2023/12/09 08:07:50;;;;;;;23.75;7.43;;;7.10;99.90;;;;;;5066145;28;20039;-81
2023/12/09 08:10:16;;;;;;;15.95;6.93;;;7.00;99.90;;;;;;5082592;28;20043;-81
2023/12/09 08:12:42;;;;;;;18.00;7.00;;;7.10;99.90;;;;;;5081213;28;20048;-82
2023/12/09 08:15:08;;;;;;;18.58;7.22;;;7.10;99.90;;;;;;5034316;28;20494;-82
2023/12/09 08:17:34;;;;;;;18.42;6.50;;;7.10;99.90;;;;;;5058947;28;20400;-81
2023/12/09 08:20:00;;;;;;;18.67;7.10;;;7.10;99.90;;;;;;5020493;28;20123;-81
2023/12/09 08:22:26;;;;;;;18.48;6.75;;;7.10;99.90;;;;;;5045057;28;20095;-82
2023/12/09 08:24:52;;;;;;;16.05;6.60;;;7.10;99.90;;;;;;5083494;28;20085;-81
2023/12/09 08:27:18;;;;;;;16.98;6.22;;;7.10;99.90;;;;;;5075840;28;20028;-81
2023/12/09 08:29:44;;;;;;;16.67;5.88;;;7.10;99.90;;;;;;5049724;28;20031;-81
2023/12/09 08:32:10;;;;;;;16.13;5.70;;;7.10;99.90;;;;;;5049801;28;20040;-81
2023/12/09 08:34:36;;;;;;;17.52;5.78;;;7.10;99.90;;;;;;5065931;28;20119;-81
2023/12/09 08:37:02;;;;;;;17.38;5.65;;;7.10;99.90;;;;;;5082009;28;20040;-81
2023/12/09 08:39:27;;;;;;;14.13;5.35;;;7.10;99.90;;;;;;5050274;28;20043;-81
2023/12/09 08:41:53;;;;;;;18.92;5.85;;;7.10;99.90;;;;;;5030778;28;20029;-82
2023/12/09 08:44:19;;;;;;;17.45;5.50;;;7.10;99.90;;;;;;5035060;28;20196;-81
2023/12/09 08:46:45;;;;;;;17.35;6.38;;;7.10;99.90;;;;;;5067426;28;20039;-81
2023/12/09 08:49:11;;;;;;;22.33;5.90;;;7.20;99.90;;;;;;5068002;28;20036;-80
2023/12/09 08:51:45;;;;;;;19.45;5.80;;;7.20;99.90;;;;;;5047211;28;20068;-81
2023/12/09 08:54:10;;;;;;;16.33;6.13;;;7.20;99.90;;;;;;5081150;28;20174;-81
2023/12/09 08:56:37;;;;;;;20.48;5.97;;;7.10;99.90;;;;;;5049191;28;20095;-81
2023/12/09 08:59:03;;;;;;;16.15;5.00;;;7.50;99.90;;;;;;5036118;28;20042;-81
2023/12/09 09:01:28;;;;;;;18.73;5.22;;;7.10;99.90;;;;;;5077539;28;20116;-82
2023/12/09 09:03:54;;;;;;;17.33;4.85;;;7.10;99.90;;;;;;5042394;28;20246;-82
2023/12/09 09:06:20;;;;;;;13.90;4.55;;;7.10;99.90;;;;;;5071580;28;20120;-82
2023/12/09 09:08:45;;;;;;;13.60;4.95;;;7.20;99.90;;;;;;5071583;28;20028;-81
2023/12/09 09:11:11;;;;;;;17.20;5.50;;;7.10;99.90;;;;;;5064251;28;20052;-81
2023/12/09 09:13:38;;;;;;;17.92;4.75;;;7.10;99.90;;;;;;5055230;28;20055;-81
2023/12/09 09:16:04;;;;;;;14.05;4.57;;;7.20;99.90;;;;;;5054787;28;20123;-81
2023/12/09 09:18:31;;;;;;;14.23;4.43;;;7.10;99.90;;;;;;5038712;28;20456;-81
2023/12/09 09:20:57;;;;;;;19.08;5.30;;;7.20;99.90;;;;;;5036565;28;20048;-81
2023/12/09 09:23:22;;;;;;;15.25;4.30;;;7.20;99.90;;;;;;5051957;28;20111;-81
2023/12/09 09:25:48;;;;;;;14.77;4.97;;;7.20;99.90;;;;;;5052117;28;20040;-81
2023/12/09 09:28:14;;;;;;;17.80;4.93;;;7.20;99.90;;;;;;5050415;28;20622;-81
2023/12/09 09:30:40;;;;;;;12.65;4.07;;;7.20;99.90;;;;;;5054539;28;20041;-81
2023/12/09 09:33:06;;;;;;;18.85;4.38;;;7.20;99.90;;;;;;5068593;28;20043;-81
2023/12/09 09:35:33;;;;;;;16.48;5.35;;;7.20;99.90;;;;;;5051990;28;20682;-81
2023/12/09 09:37:59;;;;;;;16.70;4.53;;;7.20;99.90;;;;;;5069052;28;20437;-81
2023/12/09 09:40:24;;;;;;;13.50;4.00;;;7.20;99.90;;;;;;5067456;28;20036;-81
2023/12/09 09:42:58;;;;;;;12.00;3.50;;;7.20;99.90;;;;;;5019181;28;20051;-81
2023/12/09 09:45:26;;;;;;;11.60;3.55;;;7.20;99.90;;;;;;5068613;28;20044;-81
2023/12/09 09:47:55;;;;;;;13.95;3.90;;;7.30;99.90;;;;;;5051994;28;20028;-81
2023/12/09 09:50:23;;;;;;;13.45;4.10;;;7.30;99.90;;;;;;5035250;28;20033;-81
2023/12/09 09:52:49;;;;;;;11.60;3.67;;;7.30;99.90;;;;;;5051136;28;20040;-81
2023/12/09 09:55:17;;;;;;;17.98;4.15;;;7.30;99.90;;;;;;5051450;28;20067;-81
2023/12/09 09:57:44;;;;;;;11.90;3.45;;;7.30;99.90;;;;;;5051848;28;20505;-81
2023/12/09 10:00:14;;;;;;;13.32;3.72;;;7.40;99.90;;;;;;5035012;28;20144;-82
2023/12/09 10:02:53;;;;;;;16.65;4.00;;;7.40;99.90;;;;;;5063442;28;20502;-82
2023/12/09 10:05:20;;;;;;;14.43;3.67;;;7.30;99.90;;;;;;5040866;28;20115;-81
2023/12/09 10:07:46;;;;;;;15.63;4.25;;;7.40;99.90;;;;;;5032100;28;20426;-81
2023/12/09 10:10:13;;;;;;;13.98;3.70;;;7.40;99.90;;;;;;5032450;28;20037;-82
2023/12/09 10:12:40;;;;;;;16.50;4.15;;;7.80;99.90;;;;;;5070531;28;20036;-81
2023/12/09 10:15:06;;;;;;;11.93;3.50;;;7.40;99.90;;;;;;5049819;28;20600;-81
2023/12/09 10:17:32;;;;;;;12.93;3.13;;;7.30;99.90;;;;;;5068399;28;20041;-81
2023/12/09 10:19:59;;;;;;;14.57;3.10;;;7.40;99.90;;;;;;5035917;28;20433;-81
2023/12/09 10:22:28;;;;;;;13.43;3.47;;;7.40;99.90;;;;;;5070005;28;20051;-82
2023/12/09 10:24:54;;;;;;;12.75;3.78;;;7.40;99.90;;;;;;5056074;28;20036;-81
2023/12/09 10:27:26;;;;;;;13.35;3.22;;;7.40;99.90;;;;;;5030075;28;20136;-81
2023/12/09 10:29:52;;;;;;;13.07;3.00;;;7.40;99.90;;;;;;5073607;28;20078;-81
2023/12/09 10:32:22;;;;;;;13.65;3.30;;;7.50;99.90;;;;;;5054904;28;20044;-82
2023/12/09 10:34:48;;;;;;;9.88;3.20;;;7.50;99.90;;;;;;5054604;28;20047;-81
2023/12/09 10:37:16;;;;;;;12.38;3.88;;;7.50;99.90;;;;;;5053620;28;20397;-81
2023/12/09 10:39:51;;;;;;;12.75;3.75;;;7.60;99.90;;;;;;5037996;28;20363;-81
2023/12/09 10:42:17;;;;;;;10.68;2.85;;;7.50;99.90;;;;;;5055717;28;20119;-81
2023/12/09 10:44:42;;;;;;;11.93;3.33;;;7.60;99.90;;;;;;5059608;28;20118;-82
2023/12/09 10:47:09;;;;;;;11.82;3.13;;;7.60;99.90;;;;;;5058088;28;20550;-81
2023/12/09 10:49:35;;;;;;;12.38;2.75;;;7.70;99.90;;;;;;5042356;28;20115;-81
2023/12/09 10:52:01;;;;;;;11.80;3.20;;;7.70;99.90;;;;;;5076144;28;20553;-81
2023/12/09 10:54:27;;;;;;;12.68;3.35;;;7.80;99.90;;;;;;5047488;28;20055;-81
2023/12/09 10:56:53;;;;;;;9.18;2.70;;;7.80;99.90;;;;;;5074697;28;20040;-81
2023/12/09 10:59:19;;;;;;;11.85;2.90;;;7.90;99.90;;;;;;5040978;28;20086;-81
2023/12/09 11:01:46;;;;;;;12.18;3.63;;;8.00;99.90;;;;;;5058562;28;20048;-81
2023/12/09 11:04:13;;;;;;;10.00;2.80;;;8.00;99.90;;;;;;5057864;28;20396;-81
2023/12/09 11:06:40;;;;;;;12.13;3.25;;;8.00;99.90;;;;;;5071161;28;20031;-81
2023/12/09 11:09:08;;;;;;;9.23;2.78;;;8.00;99.90;;;;;;5058882;28;20086;-81
2023/12/09 11:11:34;;;;;;;11.45;3.10;;;8.00;99.90;;;;;;5050500;28;20036;-81
2023/12/09 11:14:00;;;;;;;12.50;3.25;;;8.10;99.90;;;;;;5063107;28;20044;-82
2023/12/09 11:16:28;;;;;;;8.45;2.85;;;8.00;99.90;;;;;;5051382;28;20139;-81
2023/12/09 11:18:55;;;;;;;10.73;2.97;;;8.10;99.90;;;;;;5064332;28;20220;-81
2023/12/09 11:21:26;;;;;;;9.07;2.60;;;8.10;99.90;;;;;;5069154;28;20039;-81
2023/12/09 11:23:54;;;;;;;11.10;2.75;;;8.10;99.90;;;;;;5048797;28;20032;-82
2023/12/09 11:26:30;;;;;;;11.40;2.97;;;8.10;99.90;;;;;;5052379;28;20106;-82
2023/12/09 11:28:59;;;;;;;11.57;3.65;;;8.10;99.90;;;;;;5067439;28;20028;-81
2023/12/09 11:31:36;;;;;;;11.93;3.20;;;8.10;99.90;;;;;;5051789;28;20051;-82
2023/12/09 11:34:04;;;;;;;13.70;3.88;;;8.10;99.90;;;;;;5084640;28;20032;-81
2023/12/09 11:36:35;;;;;;;9.68;2.92;;;8.10;99.90;;;;;;5085730;28;20028;-81
2023/12/09 11:39:04;;;;;;;10.73;3.15;;;8.10;99.90;;;;;;5068659;28;20071;-81
2023/12/09 11:41:30;;;;;;;8.13;2.50;;;8.00;99.90;;;;;;5062202;28;20159;-81
2023/12/09 11:43:57;;;;;;;12.23;3.38;;;8.00;99.90;;;;;;5066553;28;20060;-81
2023/12/09 11:46:23;;;;;;;11.70;2.95;;;8.00;99.90;;;;;;5029135;28;20040;-82
2023/12/09 11:48:50;;;;;;;8.77;2.60;;;8.00;99.90;;;;;;5051805;28;20174;-82
2023/12/09 11:51:18;;;;;;;10.05;3.22;;;8.00;99.90;;;;;;5059270;28;20066;-81
2023/12/09 11:54:01;;;;;;;11.55;2.90;;;8.00;99.90;;;;;;5059495;28;20029;-81
2023/12/09 11:56:27;;;;;;;9.80;2.70;;;8.00;99.90;;;;;;5069601;28;20071;-82
2023/12/09 11:58:54;;;;;;;11.15;2.90;;;8.10;99.90;;;;;;5072066;28;20028;-81
2023/12/09 12:01:20;;;;;;;11.23;2.78;;;8.10;99.90;;;;;;5069387;28;20020;-81
2023/12/09 12:03:47;;;;;;;13.15;3.13;;;8.10;99.90;;;;;;5070440;28;20043;-81
2023/12/09 12:06:17;;;;;;;10.35;3.25;;;8.10;99.90;;;;;;5073173;28;20099;-83
2023/12/09 12:08:44;;;;;;;10.02;2.75;;;8.10;99.90;;;;;;5084207;28;20266;-80
2023/12/09 12:11:10;;;;;;;11.65;3.30;;;8.10;99.90;;;;;;5065628;28;20043;-81
2023/12/09 12:13:37;;;;;;;9.93;3.13;;;8.10;99.90;;;;;;5084171;28;20047;-83
2023/12/09 12:16:03;;;;;;;9.18;2.72;;;8.10;99.90;;;;;;5071158;28;20066;-82
2023/12/09 12:18:29;;;;;;;10.00;2.72;;;8.10;99.90;;;;;;5067318;28;20031;-82
2023/12/09 12:20:56;;;;;;;11.35;3.38;;;8.10;99.90;;;;;;5056120;28;20059;-85
2023/12/09 12:23:22;;;;;;;10.00;2.83;;;8.10;99.90;;;;;;5073756;28;20297;-83
2023/12/09 12:25:55;;;;;;;12.02;3.40;;;8.20;99.90;;;;;;5073004;28;20023;-80
2023/12/09 12:28:24;;;;;;;12.07;3.30;;;8.10;99.90;;;;;;5083463;28;20120;-82
2023/12/09 12:31:03;;;;;;;8.65;2.58;;;8.10;99.90;;;;;;5095800;28;20020;-83
2023/12/09 12:33:30;;;;;;;11.25;3.20;;;8.10;99.90;;;;;;5064292;28;20047;-83
2023/12/09 12:35:58;;;;;;;8.85;2.35;;;8.10;99.90;;;;;;5081715;28;20048;-83
2023/12/09 12:38:25;;;;;;;9.13;2.65;;;8.10;99.90;;;;;;5087164;28;20075;-83
2023/12/09 12:40:52;;;;;;;10.13;2.40;;;8.10;99.90;;;;;;5063207;28;20045;-81